Time;durP1;ratioP1;P1;durP2;ratioP2;P2;SDS_P1;SDS_P2;PMS_P1;PMS_P2;Temp;Humidity;BMP_temperature;BMP_pressure;BME280_temperature;BME280_humidity;BME280_pressure;Samples;Min_cycle;Max_cycle;Signal;HPM_P1;HPM_P2
2021/05/12 00:01:41;;;;;;;12.57;8.82;;;11.90;99.90;;;;;;5072520;28;20436;-73
2021/05/12 00:04:07;;;;;;;12.27;8.77;;;11.50;99.90;;;;;;5072331;28;20415;-74
2021/05/12 00:06:32;;;;;;;9.13;8.18;;;11.50;99.90;;;;;;5070989;28;20125;-73
2021/05/12 00:08:58;;;;;;;13.45;9.18;;;11.50;99.90;;;;;;5072524;28;20012;-73
2021/05/12 00:11:23;;;;;;;13.88;9.65;;;11.50;99.90;;;;;;5073010;28;20032;-73
2021/05/12 00:13:49;;;;;;;16.50;10.80;;;11.50;99.90;;;;;;5071907;28;20020;-73
2021/05/12 00:16:14;;;;;;;16.23;9.75;;;11.50;99.90;;;;;;5071720;28;20048;-74
2021/05/12 00:18:43;;;;;;;15.45;10.25;;;11.60;99.90;;;;;;5071673;28;20051;-74
2021/05/12 00:21:12;;;;;;;12.20;9.75;;;11.50;99.90;;;;;;5072171;28;20021;-73
2021/05/12 00:23:58;;;;;;;15.43;9.75;;;11.50;99.90;;;;;;5072397;28;20025;-74
2021/05/12 00:26:25;;;;;;;12.02;9.98;;;11.50;99.90;;;;;;5072927;28;20021;-73
2021/05/12 00:28:50;;;;;;;14.40;10.63;;;11.50;99.90;;;;;;5085496;28;20031;-74
2021/05/12 00:31:16;;;;;;;16.80;11.73;;;11.50;99.90;;;;;;5071758;28;20020;-73
2021/05/12 00:33:41;;;;;;;11.10;9.90;;;11.40;99.90;;;;;;5073701;28;20545;-74
2021/05/12 00:36:07;;;;;;;17.63;11.50;;;11.30;99.90;;;;;;5083167;28;20020;-74
2021/05/12 00:38:33;;;;;;;15.10;10.70;;;11.20;99.90;;;;;;5071651;28;20037;-73
2021/05/12 00:40:58;;;;;;;12.13;10.32;;;11.20;99.90;;;;;;5071756;28;20023;-74
2021/05/12 00:43:24;;;;;;;12.90;10.60;;;11.20;99.90;;;;;;5070864;28;20040;-75
2021/05/12 00:45:50;;;;;;;19.08;11.68;;;11.20;99.90;;;;;;5071690;28;20044;-73
2021/05/12 00:48:15;;;;;;;16.52;10.50;;;11.10;99.90;;;;;;5071826;28;20020;-73
2021/05/12 00:50:41;;;;;;;15.15;10.88;;;11.10;99.90;;;;;;5071348;28;20515;-73
2021/05/12 00:53:07;;;;;;;13.20;9.48;;;11.00;99.90;;;;;;5071679;28;20055;-73
2021/05/12 00:55:36;;;;;;;17.23;10.80;;;11.00;99.90;;;;;;5071002;28;20059;-74
2021/05/12 00:58:05;;;;;;;14.23;9.73;;;10.90;99.90;;;;;;5071694;28;20099;-72
2021/05/12 01:00:31;;;;;;;15.95;9.73;;;10.80;99.90;;;;;;5070528;28;20052;-72
2021/05/12 01:02:56;;;;;;;14.30;9.70;;;10.80;99.90;;;;;;5070465;28;20087;-73
2021/05/12 01:05:45;;;;;;;11.00;9.90;;;10.80;99.90;;;;;;5065329;28;20029;-73
2021/05/12 01:08:11;;;;;;;13.75;9.60;;;10.70;99.90;;;;;;5080510;28;20039;-73
2021/05/12 01:10:36;;;;;;;13.90;9.50;;;10.70;99.90;;;;;;5090699;28;20103;-74
2021/05/12 01:13:02;;;;;;;15.60;10.18;;;10.60;99.90;;;;;;5077268;28;20029;-73
2021/05/12 01:15:28;;;;;;;16.35;8.75;;;10.60;99.90;;;;;;5090631;28;20020;-73
2021/05/12 01:18:19;;;;;;;12.27;8.35;;;10.60;99.90;;;;;;5090372;28;20036;-73
2021/05/12 01:20:56;;;;;;;10.55;9.43;;;10.50;99.90;;;;;;5090830;28;20048;-74
2021/05/12 01:23:25;;;;;;;11.43;9.85;;;10.50;99.90;;;;;;5090884;28;20028;-74
2021/05/12 01:25:52;;;;;;;11.07;9.18;;;10.50;99.90;;;;;;5090331;28;20028;-73
2021/05/12 01:28:20;;;;;;;13.35;9.32;;;10.50;99.90;;;;;;5091373;28;20024;-72
2021/05/12 01:31:02;;;;;;;10.82;8.70;;;10.50;99.90;;;;;;5090444;28;20108;-73
2021/05/12 01:33:29;;;;;;;10.85;8.60;;;10.50;99.90;;;;;;5090975;28;20025;-74
2021/05/12 01:35:55;;;;;;;16.77;10.30;;;10.50;99.90;;;;;;5090260;28;20028;-73
2021/05/12 01:38:22;;;;;;;13.35;8.98;;;10.50;99.90;;;;;;5090258;28;20032;-74
2021/05/12 01:40:48;;;;;;;20.02;10.48;;;10.60;99.90;;;;;;5091307;28;20029;-73
2021/05/12 01:43:13;;;;;;;11.30;8.45;;;10.50;99.90;;;;;;5091070;28;20066;-74
2021/05/12 01:45:40;;;;;;;14.88;8.82;;;10.50;99.90;;;;;;5090911;28;20051;-73
2021/05/12 01:48:10;;;;;;;9.80;8.45;;;10.50;99.90;;;;;;5091183;28;20024;-74
2021/05/12 01:50:36;;;;;;;15.57;9.13;;;10.40;99.90;;;;;;5090769;28;20032;-74
2021/05/12 01:53:02;;;;;;;12.75;8.43;;;10.40;99.90;;;;;;5090591;28;20384;-74
2021/05/12 01:55:28;;;;;;;12.52;8.52;;;10.30;99.90;;;;;;5091390;28;20078;-73
2021/05/12 01:57:54;;;;;;;12.45;7.82;;;10.30;99.90;;;;;;5091214;28;20495;-73
2021/05/12 02:00:33;;;;;;;9.70;7.22;;;10.20;99.90;;;;;;5090347;28;20103;-73
2021/05/12 02:02:59;;;;;;;12.55;7.70;;;10.20;99.90;;;;;;5091080;28;20036;-72
2021/05/12 02:05:44;;;;;;;10.95;6.95;;;10.20;99.90;;;;;;5090662;28;20020;-73
2021/05/12 02:08:12;;;;;;;13.02;7.15;;;10.10;99.90;;;;;;5091277;28;20115;-73
2021/05/12 02:10:41;;;;;;;12.13;6.93;;;10.10;99.90;;;;;;5090930;28;20024;-73
2021/05/12 02:13:07;;;;;;;11.60;7.60;;;10.10;99.90;;;;;;5092596;28;20028;-73
2021/05/12 02:15:33;;;;;;;9.07;6.82;;;10.10;99.90;;;;;;5081443;28;20031;-74
2021/05/12 02:17:58;;;;;;;13.25;7.88;;;10.20;99.90;;;;;;5095090;28;20036;-74
2021/05/12 02:20:29;;;;;;;12.90;7.43;;;10.20;99.90;;;;;;5093494;28;20423;-73
2021/05/12 02:22:55;;;;;;;12.95;6.85;;;10.30;99.90;;;;;;5096365;28;20032;-75
2021/05/12 02:25:21;;;;;;;9.18;6.55;;;10.30;99.90;;;;;;5096987;28;20032;-74
2021/05/12 02:27:46;;;;;;;18.40;8.32;;;10.40;99.90;;;;;;5094443;28;20027;-74
2021/05/12 02:30:13;;;;;;;15.50;6.60;;;10.50;99.90;;;;;;5095349;28;20020;-75
2021/05/12 02:32:39;;;;;;;8.70;5.60;;;10.50;99.90;;;;;;5094727;28;20458;-73
2021/05/12 02:35:07;;;;;;;9.18;5.85;;;10.50;99.90;;;;;;5094172;28;20107;-74
2021/05/12 02:37:32;;;;;;;17.27;5.82;;;10.50;99.90;;;;;;5093891;28;20051;-73
2021/05/12 02:39:58;;;;;;;12.25;5.50;;;10.50;99.90;;;;;;5097028;28;20020;-74
2021/05/12 02:42:24;;;;;;;12.35;5.55;;;10.50;99.90;;;;;;5093898;28;20028;-74
2021/05/12 02:44:49;;;;;;;7.97;5.38;;;11.00;99.90;;;;;;5095293;28;20084;-73
2021/05/12 02:47:15;;;;;;;7.70;5.20;;;10.40;99.90;;;;;;5094189;28;20032;-73
2021/05/12 02:49:40;;;;;;;8.07;5.82;;;10.20;99.90;;;;;;5079263;28;20047;-72
2021/05/12 02:52:06;;;;;;;9.15;5.80;;;10.20;99.90;;;;;;5094248;28;20028;-74
2021/05/12 02:54:33;;;;;;;10.38;6.15;;;10.20;99.90;;;;;;5093451;28;20612;-74
2021/05/12 02:56:59;;;;;;;12.05;6.60;;;10.10;99.90;;;;;;5093157;28;20031;-74
2021/05/12 02:59:26;;;;;;;11.32;6.60;;;10.10;99.90;;;;;;5093469;28;20039;-74
2021/05/12 03:01:51;;;;;;;8.75;6.82;;;10.00;99.90;;;;;;5094127;28;20061;-73
2021/05/12 03:04:17;;;;;;;11.27;7.03;;;10.00;99.90;;;;;;5093068;28;20058;-74
2021/05/12 03:06:43;;;;;;;9.43;6.72;;;9.90;99.90;;;;;;5093625;28;20022;-74
2021/05/12 03:09:08;;;;;;;13.25;7.00;;;9.90;99.90;;;;;;5093027;28;20107;-73
2021/05/12 03:11:35;;;;;;;14.32;6.75;;;9.90;99.90;;;;;;5093523;28;20169;-74
2021/05/12 03:14:03;;;;;;;9.90;7.00;;;9.80;99.90;;;;;;5093568;28;20475;-74
2021/05/12 03:16:29;;;;;;;13.02;7.35;;;9.80;99.90;;;;;;5092912;28;20031;-74
2021/05/12 03:18:55;;;;;;;11.77;6.65;;;9.70;99.90;;;;;;5093325;28;20114;-73
2021/05/12 03:21:21;;;;;;;10.20;6.93;;;9.70;99.90;;;;;;5093579;28;20078;-73
2021/05/12 03:23:48;;;;;;;9.95;7.20;;;9.70;99.90;;;;;;5092049;28;20024;-73
2021/05/12 03:26:13;;;;;;;12.50;7.18;;;9.70;99.90;;;;;;5093375;28;20032;-74
2021/05/12 03:28:39;;;;;;;14.60;7.50;;;9.60;99.90;;;;;;5093261;28;20081;-73
2021/05/12 03:31:04;;;;;;;13.88;8.25;;;9.60;99.90;;;;;;5092586;28;20081;-73
2021/05/12 03:33:30;;;;;;;12.75;7.82;;;9.60;99.90;;;;;;5093023;28;20338;-73
2021/05/12 03:35:56;;;;;;;14.68;8.30;;;9.60;99.90;;;;;;5089566;28;20082;-74
2021/05/12 03:38:24;;;;;;;24.10;11.45;;;9.70;99.90;;;;;;5081951;28;20036;-74
2021/05/12 03:40:52;;;;;;;23.48;13.45;;;9.60;99.90;;;;;;5093108;28;20388;-74
2021/05/12 03:43:17;;;;;;;28.33;16.02;;;9.70;99.90;;;;;;5093131;28;20107;-74
2021/05/12 03:45:43;;;;;;;20.20;13.70;;;9.70;99.90;;;;;;5092988;28;20016;-74
2021/05/12 03:48:09;;;;;;;23.65;13.73;;;9.70;99.90;;;;;;5093091;28;20023;-74
2021/05/12 03:50:34;;;;;;;25.73;14.82;;;9.80;99.90;;;;;;5092781;28;20024;-74
2021/05/12 03:53:01;;;;;;;22.83;13.27;;;9.70;99.90;;;;;;5087820;28;20432;-74
2021/05/12 03:55:27;;;;;;;26.60;14.48;;;9.70;99.90;;;;;;5082625;28;20016;-74
2021/05/12 03:57:53;;;;;;;24.13;12.75;;;9.70;99.90;;;;;;5092516;28;20035;-74
2021/05/12 04:00:19;;;;;;;23.20;15.27;;;9.70;99.90;;;;;;5092233;28;20028;-74
2021/05/12 04:02:44;;;;;;;25.92;14.60;;;9.70;99.90;;;;;;5078426;28;20020;-73
2021/05/12 04:05:11;;;;;;;24.08;14.55;;;9.70;99.90;;;;;;5092823;28;20744;-74
2021/05/12 04:07:37;;;;;;;23.98;14.77;;;9.70;99.90;;;;;;5091395;28;20031;-73
2021/05/12 04:10:07;;;;;;;27.73;14.80;;;9.70;99.90;;;;;;5092509;28;20017;-73
2021/05/12 04:12:32;;;;;;;34.67;17.58;;;9.70;99.90;;;;;;5091396;28;20074;-73
2021/05/12 04:14:58;;;;;;;22.75;15.10;;;9.60;99.90;;;;;;5088572;28;20020;-72
2021/05/12 04:17:26;;;;;;;22.13;16.17;;;9.70;99.90;;;;;;5092434;28;20038;-75
2021/05/12 04:19:51;;;;;;;27.70;16.00;;;9.70;99.90;;;;;;5091988;28;20075;-74
2021/05/12 04:22:17;;;;;;;30.00;17.30;;;9.70;99.90;;;;;;5092090;28;20487;-74
2021/05/12 04:24:42;;;;;;;24.42;17.20;;;9.70;99.90;;;;;;5094739;28;20027;-74
2021/05/12 04:27:08;;;;;;;35.00;19.52;;;9.70;99.90;;;;;;5092282;28;20418;-74
2021/05/12 04:29:36;;;;;;;32.35;19.38;;;9.70;99.90;;;;;;5092362;28;20054;-73
2021/05/12 04:32:05;;;;;;;31.63;19.85;;;9.70;99.90;;;;;;5092532;28;20036;-74
2021/05/12 04:34:31;;;;;;;33.58;20.15;;;9.80;99.90;;;;;;5091726;28;20464;-75
2021/05/12 04:36:56;;;;;;;28.75;18.90;;;9.80;99.90;;;;;;5092190;28;20031;-73
2021/05/12 04:39:22;;;;;;;32.85;21.10;;;9.80;99.90;;;;;;5091548;28;20468;-73
2021/05/12 04:41:48;;;;;;;32.35;20.65;;;9.90;99.90;;;;;;5091922;28;20020;-73
2021/05/12 04:44:14;;;;;;;29.80;19.67;;;10.70;99.90;;;;;;5091723;28;20333;-73
2021/05/12 04:46:41;;;;;;;32.85;21.52;;;9.90;99.90;;;;;;5091778;28;20031;-73
2021/05/12 04:49:13;;;;;;;25.90;19.92;;;10.00;99.90;;;;;;5091187;28;20512;-73
2021/05/12 04:51:38;;;;;;;28.45;20.60;;;10.00;99.90;;;;;;5092736;28;20099;-74
2021/05/12 04:54:05;;;;;;;37.85;20.27;;;10.00;99.90;;;;;;5092786;28;20173;-74
2021/05/12 04:56:34;;;;;;;36.17;22.17;;;10.10;99.90;;;;;;5091589;28;20031;-74
2021/05/12 04:59:03;;;;;;;31.67;20.45;;;10.20;99.90;;;;;;5091989;28;20032;-73
2021/05/12 05:01:30;;;;;;;30.00;19.92;;;10.20;99.90;;;;;;5091827;28;20039;-74
2021/05/12 05:03:58;;;;;;;27.60;20.00;;;10.20;99.90;;;;;;5092354;28;20024;-73
2021/05/12 05:06:23;;;;;;;30.33;20.00;;;10.30;99.90;;;;;;5090339;28;20028;-74
2021/05/12 05:08:49;;;;;;;33.50;20.77;;;10.30;99.90;;;;;;5080112;28;20379;-73
2021/05/12 05:11:14;;;;;;;28.35;20.17;;;10.30;99.90;;;;;;5092177;28;20066;-75
2021/05/12 05:13:40;;;;;;;29.42;20.25;;;10.40;99.90;;;;;;5091907;28;20043;-74
2021/05/12 05:16:07;;;;;;;24.75;18.40;;;10.50;99.90;;;;;;5091439;28;20080;-74
2021/05/12 05:18:32;;;;;;;27.30;18.25;;;10.50;99.90;;;;;;5091405;28;20506;-74
2021/05/12 05:20:59;;;;;;;35.35;20.77;;;10.60;99.90;;;;;;5092380;28;20028;-74
2021/05/12 05:23:26;;;;;;;31.35;18.50;;;10.60;99.90;;;;;;5063190;28;20044;-73
2021/05/12 05:25:51;;;;;;;33.80;17.98;;;10.70;99.90;;;;;;5061694;28;20485;-73
2021/05/12 05:28:17;;;;;;;31.02;17.60;;;10.80;99.90;;;;;;5054365;28;20044;-74
2021/05/12 05:30:43;;;;;;;28.27;17.48;;;10.80;99.90;;;;;;5057928;28;20032;-74
2021/05/12 05:33:08;;;;;;;28.70;18.40;;;10.80;99.90;;;;;;5054944;28;20369;-73
2021/05/12 05:35:34;;;;;;;26.75;17.02;;;10.90;99.90;;;;;;5055493;28;20060;-75
2021/05/12 05:38:00;;;;;;;28.67;16.80;;;11.00;99.90;;;;;;5053329;28;20033;-74
2021/05/12 05:40:25;;;;;;;23.90;16.42;;;11.00;99.90;;;;;;5055273;28;20021;-74
2021/05/12 05:42:59;;;;;;;27.77;15.65;;;11.00;99.90;;;;;;5055076;28;20020;-74
2021/05/12 05:45:26;;;;;;;21.13;13.70;;;11.10;99.90;;;;;;5058317;28;20025;-75
2021/05/12 05:47:51;;;;;;;21.02;14.18;;;11.10;99.90;;;;;;5089231;28;20355;-74
2021/05/12 05:50:17;;;;;;;26.67;14.63;;;11.40;99.90;;;;;;5086749;28;20021;-73
2021/05/12 05:52:43;;;;;;;30.33;15.57;;;11.20;99.90;;;;;;5064153;28;20083;-75
2021/05/12 05:55:10;;;;;;;23.05;13.20;;;11.30;99.90;;;;;;5061460;28;20059;-74
2021/05/12 05:57:35;;;;;;;23.95;13.32;;;11.30;99.90;;;;;;5070954;28;20032;-74
2021/05/12 06:00:02;;;;;;;22.00;12.05;;;11.40;99.90;;;;;;5078127;28;20028;-74
2021/05/12 06:02:27;;;;;;;15.55;11.05;;;11.50;99.90;;;;;;5075036;28;20016;-74
2021/05/12 06:04:53;;;;;;;24.55;9.80;;;11.50;99.90;;;;;;5075198;28;20339;-74
2021/05/12 06:07:18;;;;;;;21.17;9.90;;;11.60;99.90;;;;;;5072775;28;20020;-75
2021/05/12 06:09:44;;;;;;;15.98;7.28;;;11.60;99.90;;;;;;5075578;28;20106;-73
2021/05/12 06:12:09;;;;;;;23.33;7.10;;;11.80;99.90;;;;;;5073736;28;20111;-73
2021/05/12 06:14:35;;;;;;;16.45;5.97;;;11.90;99.90;;;;;;5075154;28;20388;-73
2021/05/12 06:17:00;;;;;;;21.77;5.63;;;12.10;99.90;;;;;;5073914;28;20024;-74
2021/05/12 06:19:26;;;;;;;15.60;4.57;;;12.30;99.90;;;;;;5074510;28;20041;-73
2021/05/12 06:21:52;;;;;;;15.80;3.90;;;12.30;99.90;;;;;;5075477;28;20033;-75
2021/05/12 06:24:18;;;;;;;11.85;3.78;;;12.40;99.90;;;;;;5076451;28;20107;-75
2021/05/12 06:26:46;;;;;;;13.77;2.95;;;12.40;99.90;;;;;;5073757;28;20104;-74
2021/05/12 06:29:12;;;;;;;15.43;3.28;;;12.40;99.90;;;;;;5077752;28;20081;-74
2021/05/12 06:31:37;;;;;;;16.48;2.95;;;12.40;99.90;;;;;;5075748;28;20028;-75
2021/05/12 06:34:03;;;;;;;18.23;3.65;;;12.40;99.90;;;;;;5076028;28;20429;-75
2021/05/12 06:36:29;;;;;;;18.83;2.95;;;12.30;99.90;;;;;;5074925;28;20021;-74
2021/05/12 06:38:54;;;;;;;17.00;2.90;;;12.30;99.90;;;;;;5072896;28;20764;-75
2021/05/12 06:41:20;;;;;;;23.73;3.63;;;12.30;99.90;;;;;;5072669;28;20048;-73
2021/05/12 06:43:48;;;;;;;14.75;3.25;;;12.30;99.90;;;;;;5073965;28;20044;-75
2021/05/12 06:46:14;;;;;;;20.98;3.03;;;12.30;99.90;;;;;;5077821;28;20027;-75
2021/05/12 06:48:40;;;;;;;14.73;2.38;;;12.30;99.90;;;;;;5072292;28;20027;-75
2021/05/12 06:51:06;;;;;;;19.80;4.38;;;12.40;99.90;;;;;;5075543;28;20387;-75
2021/05/12 06:53:33;;;;;;;16.90;3.25;;;12.30;99.90;;;;;;5073845;28;20098;-76
2021/05/12 06:56:00;;;;;;;18.02;3.17;;;12.40;99.90;;;;;;5073124;28;20024;-75
2021/05/12 06:58:26;;;;;;;17.58;2.88;;;12.40;99.90;;;;;;5073643;28;20039;-75
2021/05/12 07:00:52;;;;;;;17.20;3.70;;;12.40;99.90;;;;;;5074516;28;20017;-76
2021/05/12 07:03:20;;;;;;;19.98;3.90;;;12.40;99.90;;;;;;5076042;28;20016;-76
2021/05/12 07:05:46;;;;;;;14.35;3.60;;;12.40;99.90;;;;;;5081278;28;20016;-76
2021/05/12 07:08:11;;;;;;;18.83;3.90;;;12.40;99.90;;;;;;5086454;28;20028;-77
2021/05/12 07:10:38;;;;;;;15.75;3.40;;;12.50;99.90;;;;;;5089518;28;20535;-76
2021/05/12 07:13:04;;;;;;;17.92;3.30;;;12.50;99.90;;;;;;5085823;28;20451;-76
2021/05/12 07:15:30;;;;;;;13.88;3.33;;;12.50;99.90;;;;;;5089468;28;20020;-76
2021/05/12 07:17:56;;;;;;;15.23;4.00;;;12.50;99.90;;;;;;5081317;28;20398;-75
2021/05/12 07:20:21;;;;;;;15.85;3.10;;;12.60;99.90;;;;;;5076845;28;20045;-75
2021/05/12 07:22:48;;;;;;;17.02;3.40;;;12.60;99.90;;;;;;5075081;28;21352;-75
2021/05/12 07:25:14;;;;;;;15.23;3.40;;;12.70;99.90;;;;;;5074892;28;20078;-78
2021/05/12 07:27:39;;;;;;;17.60;4.20;;;12.70;99.90;;;;;;5086700;28;20012;-76
2021/05/12 07:30:06;;;;;;;11.73;3.28;;;12.70;99.90;;;;;;5074075;28;20369;-77
2021/05/12 07:32:32;;;;;;;11.15;2.88;;;12.80;99.90;;;;;;5072576;28;20400;-76
2021/05/12 07:35:00;;;;;;;9.63;3.20;;;12.80;99.90;;;;;;5074277;28;20027;-76
2021/05/12 07:37:26;;;;;;;13.15;3.83;;;12.80;99.90;;;;;;5081510;28;20100;-75
2021/05/12 07:39:59;;;;;;;11.70;3.28;;;12.80;99.90;;;;;;5077847;28;20108;-75
2021/05/12 07:42:25;;;;;;;16.40;3.78;;;13.00;99.90;;;;;;5070307;28;20047;-75
2021/05/12 07:44:51;;;;;;;12.07;3.67;;;13.00;99.90;;;;;;5071026;28;20483;-75
2021/05/12 07:47:17;;;;;;;10.30;3.60;;;13.00;99.90;;;;;;5071176;28;20033;-74
2021/05/12 07:49:44;;;;;;;11.45;4.03;;;13.10;99.90;;;;;;5071356;28;20112;-74
2021/05/12 07:52:14;;;;;;;15.15;4.20;;;13.10;99.90;;;;;;5070865;28;20388;-75
2021/05/12 07:54:44;;;;;;;17.02;3.92;;;13.20;99.90;;;;;;5071999;28;20029;-73
2021/05/12 07:57:11;;;;;;;15.32;4.20;;;13.20;99.90;;;;;;5071410;28;20020;-74
2021/05/12 07:59:37;;;;;;;9.93;4.07;;;13.30;99.90;;;;;;5055958;28;20060;-74
2021/05/12 08:02:04;;;;;;;10.50;4.40;;;13.30;99.90;;;;;;5071195;28;20053;-76
2021/05/12 08:04:30;;;;;;;13.20;4.63;;;13.40;99.90;;;;;;5067772;28;20137;-76
2021/05/12 08:06:57;;;;;;;9.75;3.70;;;13.40;99.90;;;;;;5069756;28;20099;-75
2021/05/12 08:09:23;;;;;;;9.20;4.18;;;13.50;99.90;;;;;;5070209;28;20020;-73
2021/05/12 08:11:49;;;;;;;12.02;4.40;;;13.50;99.90;;;;;;5072738;28;20021;-73
2021/05/12 08:14:14;;;;;;;9.77;3.90;;;13.60;99.90;;;;;;5074142;28;20054;-74
2021/05/12 08:16:40;;;;;;;15.02;4.47;;;13.60;99.90;;;;;;5071785;28;20051;-76
2021/05/12 08:19:06;;;;;;;23.15;4.72;;;13.60;99.90;;;;;;5073348;28;20051;-74
2021/05/12 08:21:33;;;;;;;12.02;4.05;;;13.70;99.90;;;;;;5064130;28;20029;-74
2021/05/12 08:24:01;;;;;;;18.00;4.10;;;13.70;99.90;;;;;;5075905;28;20035;-76
2021/05/12 08:26:28;;;;;;;10.05;4.20;;;13.70;99.90;;;;;;5070542;28;20063;-76
2021/05/12 08:28:54;;;;;;;14.57;4.22;;;13.80;99.90;;;;;;5069484;28;20029;-77
2021/05/12 08:31:20;;;;;;;7.28;3.97;;;13.80;99.90;;;;;;5070733;28;20499;-76
2021/05/12 08:33:45;;;;;;;9.63;3.40;;;13.90;99.90;;;;;;5070534;28;20111;-76
2021/05/12 08:36:14;;;;;;;15.48;4.13;;;13.90;99.90;;;;;;5071494;28;20503;-76
2021/05/12 08:38:46;;;;;;;15.93;4.38;;;14.00;99.90;;;;;;5067299;28;20086;-75
2021/05/12 08:41:12;;;;;;;10.43;4.10;;;14.10;99.90;;;;;;5073494;28;20020;-76
2021/05/12 08:43:40;;;;;;;11.23;4.30;;;14.20;99.90;;;;;;5060329;28;20028;-71
2021/05/12 08:46:10;;;;;;;21.52;5.05;;;14.30;99.90;;;;;;5070906;28;20492;-76
2021/05/12 08:48:37;;;;;;;14.67;4.30;;;14.40;99.90;;;;;;5069278;28;20040;-77
2021/05/12 08:51:04;;;;;;;9.18;4.63;;;14.50;99.90;;;;;;5070030;28;20036;-71
2021/05/12 08:53:31;;;;;;;13.73;4.07;;;14.60;99.90;;;;;;5069924;28;20494;-76
2021/05/12 08:55:58;;;;;;;9.75;4.10;;;14.70;99.90;;;;;;5070211;28;20120;-73
2021/05/12 08:58:24;;;;;;;8.55;4.20;;;14.80;99.90;;;;;;5070073;28;20155;-74
2021/05/12 09:00:49;;;;;;;11.13;3.80;;;14.90;99.90;;;;;;5068407;28;20103;-74
2021/05/12 09:03:15;;;;;;;7.22;3.55;;;15.00;99.90;;;;;;5072014;28;20383;-74
2021/05/12 09:05:42;;;;;;;16.05;4.28;;;15.30;99.90;;;;;;5072184;28;20028;-76
2021/05/12 09:08:08;;;;;;;14.25;4.63;;;15.30;99.90;;;;;;5071212;28;20047;-77
2021/05/12 09:10:34;;;;;;;8.63;4.43;;;15.40;99.90;;;;;;5071697;28;20429;-77
2021/05/12 09:13:00;;;;;;;11.63;4.63;;;15.50;99.90;;;;;;5071431;28;20074;-76
2021/05/12 09:15:27;;;;;;;12.70;5.28;;;15.50;99.90;;;;;;5071601;28;20032;-76
2021/05/12 09:17:56;;;;;;;10.85;5.68;;;15.50;99.90;;;;;;5071939;28;20036;-77
2021/05/12 09:20:23;;;;;;;11.05;4.07;;;15.50;99.90;;;;;;5072969;28;20057;-69
2021/05/12 09:23:04;;;;;;;10.57;3.97;;;15.40;99.90;;;;;;5074086;28;20032;-77
2021/05/12 09:25:33;;;;;;;15.75;4.22;;;15.30;99.90;;;;;;5076945;28;20040;-77
2021/05/12 09:28:18;;;;;;;10.45;4.05;;;15.30;99.90;;;;;;5075522;28;20032;-76
2021/05/12 09:30:47;;;;;;;12.05;4.43;;;15.30;99.90;;;;;;5076355;28;20078;-76
2021/05/12 09:33:27;;;;;;;11.50;4.13;;;15.40;99.90;;;;;;5077274;28;20046;-76
2021/05/12 09:35:53;;;;;;;6.40;3.15;;;15.50;99.90;;;;;;5079044;28;20037;-78
2021/05/12 09:38:24;;;;;;;12.80;4.30;;;15.50;99.90;;;;;;5076311;28;20036;-78
2021/05/12 09:41:11;;;;;;;12.23;5.43;;;15.50;99.90;;;;;;5083933;28;20518;-77
2021/05/12 09:43:46;;;;;;;7.47;3.45;;;15.60;99.90;;;;;;5077190;28;20100;-77
2021/05/12 09:46:21;;;;;;;10.35;3.58;;;15.50;99.90;;;;;;5093863;28;20326;-76
2021/05/12 09:49:06;;;;;;;15.80;4.88;;;15.50;99.90;;;;;;5092851;28;20029;-77
2021/05/12 09:51:34;;;;;;;8.82;4.10;;;15.60;99.90;;;;;;5074384;28;20037;-77
2021/05/12 09:54:19;;;;;;;10.00;3.78;;;15.60;99.90;;;;;;5075032;28;20117;-76
2021/05/12 09:56:52;;;;;;;9.18;3.95;;;15.70;99.90;;;;;;5075725;28;20077;-76
2021/05/12 09:59:40;;;;;;;10.05;4.68;;;15.80;99.90;;;;;;5075410;28;20040;-76
2021/05/12 10:02:06;;;;;;;9.98;4.28;;;15.80;99.90;;;;;;5077097;28;20040;-77
2021/05/12 10:04:43;;;;;;;11.65;3.85;;;15.80;99.90;;;;;;5090989;28;20025;-77
2021/05/12 10:07:26;;;;;;;11.00;4.15;;;15.80;99.90;;;;;;5079398;28;20158;-77
2021/05/12 10:09:53;;;;;;;10.40;4.72;;;16.00;99.90;;;;;;5079315;28;20094;-77
2021/05/12 10:12:23;;;;;;;10.70;4.22;;;16.10;99.90;;;;;;5080927;28;20051;-77
2021/05/12 10:14:55;;;;;;;12.80;5.20;;;16.20;99.90;;;;;;5077931;28;20107;-76
2021/05/12 10:17:22;;;;;;;12.80;5.65;;;16.30;99.90;;;;;;5058392;28;20020;-77
2021/05/12 10:19:49;;;;;;;12.68;5.40;;;16.30;99.90;;;;;;5074509;28;20045;-77
2021/05/12 10:22:16;;;;;;;9.55;4.55;;;16.20;99.90;;;;;;5074337;28;20455;-76
2021/05/12 10:24:45;;;;;;;13.02;5.55;;;16.10;99.90;;;;;;5071737;28;20480;-77
2021/05/12 10:27:22;;;;;;;17.50;4.88;;;15.90;99.90;;;;;;5075423;28;20029;-77
2021/05/12 10:29:50;;;;;;;9.02;4.43;;;15.80;99.90;;;;;;5075828;28;20062;-77
2021/05/12 10:32:17;;;;;;;15.38;3.65;;;15.80;99.90;;;;;;5081504;28;20353;-76
2021/05/12 10:34:43;;;;;;;8.35;3.25;;;15.90;99.90;;;;;;5075965;28;20089;-77
2021/05/12 10:37:16;;;;;;;13.18;4.55;;;16.10;99.90;;;;;;5079183;28;20029;-76
2021/05/12 10:39:51;;;;;;;11.68;3.47;;;16.20;99.90;;;;;;5080828;28;20043;-77
2021/05/12 10:43:16;;;;;;;9.20;3.60;;;16.40;99.90;;;;;;5077579;28;20024;-78
2021/05/12 10:45:47;;;;;;;9.38;3.30;;;16.60;99.90;;;;;;5079843;28;20021;-77
2021/05/12 10:48:31;;;;;;;12.93;3.85;;;16.90;99.90;;;;;;5094165;28;20031;-77
2021/05/12 10:50:58;;;;;;;11.13;3.33;;;17.10;99.90;;;;;;5078077;28;20028;-77
2021/05/12 10:53:25;;;;;;;7.88;3.47;;;17.20;99.90;;;;;;5087066;28;20418;-75
2021/05/12 10:55:57;;;;;;;9.27;2.90;;;17.40;99.90;;;;;;5083954;28;20016;-77
2021/05/12 10:58:28;;;;;;;12.27;4.72;;;17.60;99.90;;;;;;5080510;28;20025;-78
2021/05/12 11:01:12;;;;;;;10.65;3.15;;;17.70;99.90;;;;;;5077770;28;20088;-77
2021/05/12 11:03:50;;;;;;;11.43;3.58;;;18.00;99.90;;;;;;5082915;28;20016;-76
2021/05/12 11:06:16;;;;;;;10.82;3.08;;;18.20;99.90;;;;;;5082898;28;20025;-76
2021/05/12 11:09:17;;;;;;;10.73;3.15;;;18.30;98.70;;;;;;5086142;28;20487;-75
2021/05/12 11:11:57;;;;;;;8.88;2.78;;;18.30;97.60;;;;;;5039340;28;20032;-75
2021/05/12 11:14:34;;;;;;;7.37;2.63;;;18.30;97.60;;;;;;5086455;28;20100;-77
2021/05/12 11:17:17;;;;;;;14.52;2.70;;;18.50;97.80;;;;;;5095240;28;20024;-76
2021/05/12 11:19:44;;;;;;;7.38;3.17;;;18.60;96.80;;;;;;5095379;28;20062;-77
2021/05/12 11:22:31;;;;;;;11.10;3.67;;;18.80;95.30;;;;;;5083866;28;20024;-76
2021/05/12 11:32:37;;;;;;;8.95;2.72;;;18.80;92.90;;;;;;5093754;28;20024;-76
2021/05/12 11:35:03;;;;;;;;;;;18.80;92.90;;;;;;5094127;28;20102;-75
2021/05/12 11:37:32;;;;;;;10.77;2.90;;;18.80;92.70;;;;;;5092133;28;19957;-77
2021/05/12 11:39:58;;;;;;;10.98;3.45;;;18.80;91.20;;;;;;5093104;28;20439;-77
2021/05/12 11:42:32;;;;;;;8.63;2.42;;;18.70;91.20;;;;;;5092841;28;20024;-77
2021/05/12 11:45:21;;;;;;;7.45;2.28;;;18.70;92.00;;;;;;5092256;28;20024;-77
2021/05/12 11:48:02;;;;;;;8.00;2.20;;;18.70;91.90;;;;;;5093108;28;20503;-77
2021/05/12 11:50:33;;;;;;;9.18;2.13;;;18.80;92.00;;;;;;5091697;28;20069;-76
2021/05/12 11:52:59;;;;;;;8.38;2.20;;;18.90;92.10;;;;;;5088579;28;20026;-77
2021/05/12 11:55:30;;;;;;;7.60;2.22;;;19.00;90.40;;;;;;5088847;28;20040;-76
2021/05/12 11:57:56;;;;;;;10.50;2.25;;;19.10;91.00;;;;;;5087066;28;20051;-77
2021/05/12 12:00:41;;;;;;;4.72;2.08;;;19.10;90.70;;;;;;5091136;28;20043;-77
2021/05/12 12:03:10;;;;;;;7.32;1.88;;;19.20;89.40;;;;;;5090135;28;20028;-78
2021/05/12 12:05:42;;;;;;;9.25;2.17;;;19.20;84.00;;;;;;5089236;28;20025;-76
2021/05/12 12:08:12;;;;;;;6.57;2.10;;;19.00;85.40;;;;;;5088491;28;20043;-76
2021/05/12 12:10:38;;;;;;;13.63;2.92;;;18.90;86.80;;;;;;5088998;28;20384;-75
2021/05/12 12:13:13;;;;;;;12.95;3.05;;;18.90;86.30;;;;;;5088244;28;20140;-76
2021/05/12 12:15:46;;;;;;;8.18;2.28;;;19.00;85.10;;;;;;5090693;28;20016;-77
2021/05/12 12:18:12;;;;;;;8.65;2.97;;;19.10;81.40;;;;;;5090415;28;20097;-77
2021/05/12 12:20:38;;;;;;;6.50;1.90;;;19.10;83.50;;;;;;5092238;28;20040;-77
2021/05/12 12:23:04;;;;;;;10.45;2.15;;;19.20;83.80;;;;;;5092820;28;20039;-77
2021/05/12 12:25:43;;;;;;;8.15;2.15;;;19.40;85.30;;;;;;5091687;28;20024;-77
2021/05/12 12:28:09;;;;;;;11.50;2.70;;;19.50;84.90;;;;;;5092783;28;20400;-77
2021/05/12 12:30:34;;;;;;;10.63;2.90;;;19.70;83.70;;;;;;5094161;28;20150;-77
2021/05/12 12:33:02;;;;;;;8.80;2.88;;;20.00;83.90;;;;;;5095206;28;20170;-77
2021/05/12 12:35:27;;;;;;;9.93;2.13;;;20.00;78.80;;;;;;5081291;28;20052;-78
2021/05/12 12:37:53;;;;;;;8.20;2.50;;;20.00;80.30;;;;;;5094741;28;20043;-76
2021/05/12 12:40:20;;;;;;;9.10;2.45;;;20.00;80.40;;;;;;5094801;28;20088;-76
2021/05/12 12:42:51;;;;;;;8.38;2.00;;;19.80;78.20;;;;;;5092897;28;20034;-77
2021/05/12 12:45:29;;;;;;;12.00;2.40;;;19.50;77.90;;;;;;5093744;28;20028;-77
2021/05/12 12:47:58;;;;;;;12.07;2.22;;;19.40;77.50;;;;;;5094005;28;20020;-76
2021/05/12 12:50:27;;;;;;;6.47;1.90;;;19.30;80.30;;;;;;5094178;28;20058;-78
2021/05/12 12:52:52;;;;;;;8.90;2.50;;;19.30;79.40;;;;;;5093615;28;20024;-76